KTAD/TAD METAR and TAF weather

Enter ICAO airport designator
Station Type Date Time Source
KTAD METAR 2019/05/27 08:54 UTC NOAA

KTAD 270854Z AUTO 05003KT 10SM CLR 08/01 A2991 RMK AO2 SLP053 T00830011 55002


Station Type Date Time Source
KTAD Decoded METAR 2019/05/27 08:54 UTC NOAA

Trinidad, Perry Stokes Airport, CO, United States (KTAD) 37-16N 104-26W
May 27, 2019 - 04:54 AM EDT / 2019.05.27 0854 UTC
Wind: from the NE (050 degrees) at 3 MPH (3 KT):0
Visibility: 10 mile(s):0
Sky conditions: clear
Temperature: 46.9 F (8.3 C)
Dew Point: 34.0 F (1.1 C)
Relative Humidity: 60%
Pressure (altimeter): 29.91 in. Hg (1012 hPa)
Pressure tendency: 0.01 inches (0.2 hPa) lower than three hours ago
ob: KTAD 270854Z AUTO 05003KT 10SM CLR 08/01 A2991 RMK AO2 SLP053 T00830011 55002
cycle: 9

Station Type Date Time Source
KTAD TAF UTC NOAA

Error!

Example: see airport list